createdAt,value
2022-10-26T00:01:15.397Z,8.57
2022-10-26T00:03:47.538Z,8.64
2022-10-26T00:06:44.686Z,8.49
2022-10-26T00:09:29.333Z,8.59
2022-10-26T00:12:10.853Z,8.24
2022-10-26T00:14:37.824Z,8.29
2022-10-26T00:17:10.620Z,8.37
2022-10-26T00:19:39.823Z,8.39
2022-10-26T00:22:21.194Z,8.46
2022-10-26T00:25:03.185Z,8.51
2022-10-26T00:27:50.527Z,8.53
2022-10-26T00:30:39.384Z,8.35
2022-10-26T00:33:30.336Z,8.18
2022-10-26T00:36:09.773Z,8.12
2022-10-26T00:38:38.247Z,8.03
2022-10-26T00:41:06.390Z,8.21
2022-10-26T00:43:40.196Z,8.04
2022-10-26T00:46:37.878Z,8.17
2022-10-26T00:49:21.450Z,8.10
2022-10-26T00:51:54.108Z,7.99
2022-10-26T00:54:33.791Z,8.01
2022-10-26T00:57:01.856Z,7.93
2022-10-26T00:59:57.537Z,7.86
2022-10-26T01:02:35.538Z,7.64
2022-10-26T01:05:06.539Z,7.30
2022-10-26T01:07:43.973Z,7.24
2022-10-26T01:10:34.694Z,7.11
2022-10-26T01:13:02.957Z,7.07
2022-10-26T01:16:27.592Z,7.12
2022-10-26T01:19:31.778Z,7.68
2022-10-26T01:22:21.107Z,7.52
2022-10-26T01:25:07.478Z,7.67
2022-10-26T01:28:01.094Z,7.63
2022-10-26T01:30:44.556Z,7.70
2022-10-26T01:33:50.458Z,7.87
2022-10-26T01:37:00.120Z,7.80
2022-10-26T01:40:11.576Z,7.75
2022-10-26T01:42:57.534Z,7.75
2022-10-26T01:45:28.289Z,7.71
2022-10-26T01:47:56.938Z,7.73
2022-10-26T01:50:25.024Z,7.71
2022-10-26T01:52:52.373Z,7.59
2022-10-26T01:55:47.743Z,7.77
2022-10-26T01:59:01.359Z,7.78
2022-10-26T02:01:32.451Z,7.50
2022-10-26T02:04:30.065Z,7.33
2022-10-26T02:07:35.925Z,7.08
2022-10-26T02:10:32.925Z,7.06
2022-10-26T02:13:41.317Z,7.18
2022-10-26T02:16:28.931Z,7.17
2022-10-26T02:19:44.894Z,7.32
2022-10-26T02:22:19.692Z,7.45
2022-10-26T02:25:16.097Z,7.46
2022-10-26T02:28:09.039Z,7.33
2022-10-26T02:30:53.016Z,7.13
2022-10-26T02:34:02.019Z,6.93
2022-10-26T02:36:45.478Z,6.71
2022-10-26T02:39:17.804Z,6.58
2022-10-26T02:41:55.397Z,6.76
2022-10-26T02:44:30.708Z,7.02
2022-10-26T02:47:31.359Z,6.78
2022-10-26T02:49:58.542Z,6.49
2022-10-26T02:53:03.304Z,6.57
2022-10-26T02:55:37.222Z,6.79
2022-10-26T02:58:11.840Z,6.99
2022-10-26T03:00:42.896Z,6.92
2022-10-26T03:03:28.187Z,6.77
2022-10-26T03:05:55.209Z,6.79
2022-10-26T03:08:26.296Z,6.58
2022-10-26T03:11:07.367Z,7.00
2022-10-26T03:13:35.479Z,6.72
2022-10-26T03:16:03.427Z,6.83
2022-10-26T03:18:30.314Z,6.79
2022-10-26T03:20:58.524Z,6.46
2022-10-26T03:23:25.567Z,6.42
2022-10-26T03:26:16.500Z,6.29
2022-10-26T03:28:44.623Z,6.22
2022-10-26T03:31:41.517Z,6.36
2022-10-26T03:34:10.378Z,6.52
2022-10-26T03:36:38.395Z,6.61
2022-10-26T03:39:13.573Z,6.69
2022-10-26T03:41:46.672Z,6.61
2022-10-26T03:44:32.142Z,6.69
2022-10-26T03:47:05.229Z,6.68
2022-10-26T03:49:32.239Z,6.68
2022-10-26T03:51:59.378Z,6.53
2022-10-26T03:54:28.289Z,6.57
2022-10-26T03:57:20.536Z,6.66
2022-10-26T04:00:03.684Z,6.67
2022-10-26T04:02:32.828Z,6.58
2022-10-26T04:05:06.418Z,6.62
2022-10-26T04:07:40.099Z,6.58
2022-10-26T04:10:14.113Z,6.48
2022-10-26T04:13:03.899Z,6.40
2022-10-26T04:15:38.116Z,6.43
2022-10-26T04:18:15.173Z,6.49
2022-10-26T04:20:55.228Z,6.52
2022-10-26T04:23:45.466Z,6.42
2022-10-26T04:26:12.302Z,6.29
2022-10-26T04:28:48.388Z,6.26
2022-10-26T04:31:17.087Z,6.15
2022-10-26T04:33:47.088Z,6.06
2022-10-26T04:36:21.077Z,6.11
2022-10-26T04:38:49.315Z,6.18
2022-10-26T04:41:20.415Z,6.06
2022-10-26T04:43:55.464Z,5.95
2022-10-26T04:46:24.488Z,5.89
2022-10-26T04:48:54.534Z,5.98
2022-10-26T04:51:21.589Z,5.93
2022-10-26T04:53:49.577Z,5.97
2022-10-26T04:56:17.519Z,6.06
2022-10-26T04:58:45.482Z,6.13
2022-10-26T05:01:13.071Z,5.93
2022-10-26T05:03:50.895Z,5.64
2022-10-26T05:06:20.542Z,5.72
2022-10-26T05:08:48.607Z,5.72
2022-10-26T05:11:20.574Z,5.71
2022-10-26T05:14:13.398Z,5.83
2022-10-26T05:16:51.816Z,5.77
2022-10-26T05:19:23.775Z,5.85
2022-10-26T05:21:54.961Z,5.77
2022-10-26T05:24:22.118Z,5.56
2022-10-26T05:26:51.193Z,5.47
2022-10-26T05:29:18.147Z,5.33
2022-10-26T05:31:48.454Z,5.45
2022-10-26T05:34:16.447Z,5.33
2022-10-26T05:36:44.465Z,5.47
2022-10-26T05:39:14.413Z,5.50
2022-10-26T05:41:41.549Z,5.48
2022-10-26T05:44:14.303Z,5.56
2022-10-26T05:46:42.691Z,5.54
2022-10-26T05:49:09.767Z,5.54
2022-10-26T05:51:37.916Z,5.30
2022-10-26T05:54:10.311Z,5.23
2022-10-26T05:56:40.859Z,5.17
2022-10-26T05:59:14.472Z,5.31
2022-10-26T06:01:49.927Z,5.61
2022-10-26T06:04:43.462Z,5.49
2022-10-26T06:07:28.897Z,5.39
2022-10-26T06:09:56.087Z,5.40
2022-10-26T06:12:25.733Z,5.43
2022-10-26T06:14:54.188Z,5.43
2022-10-26T06:17:46.817Z,5.53
2022-10-26T06:20:22.593Z,5.51
2022-10-26T06:23:04.759Z,5.77
2022-10-26T06:26:18.215Z,5.78
2022-10-26T06:29:18.300Z,6.02
2022-10-26T06:31:45.985Z,6.08
2022-10-26T06:34:33.463Z,6.03
2022-10-26T06:37:07.990Z,6.01
2022-10-26T06:39:48.861Z,6.06
2022-10-26T06:42:18.999Z,6.16
2022-10-26T06:44:47.348Z,6.24
2022-10-26T06:47:53.792Z,6.40
2022-10-26T06:50:50.486Z,6.69
2022-10-26T06:53:22.661Z,6.81
2022-10-26T06:55:51.210Z,6.88
2022-10-26T06:58:33.066Z,7.03
2022-10-26T07:01:02.548Z,7.20
2022-10-26T07:03:31.620Z,7.33
2022-10-26T07:06:05.517Z,7.51
2022-10-26T07:08:34.588Z,7.76
2022-10-26T07:11:02.823Z,7.91
2022-10-26T07:13:37.663Z,8.18
2022-10-26T07:16:05.857Z,8.30
2022-10-26T07:18:40.117Z,8.45
2022-10-26T07:21:08.186Z,8.69
2022-10-26T07:23:38.198Z,8.83
2022-10-26T07:26:05.337Z,9.01
2022-10-26T07:28:32.511Z,9.23
2022-10-26T07:31:00.542Z,9.38
2022-10-26T07:33:28.598Z,9.51
2022-10-26T07:35:59.861Z,9.73
2022-10-26T07:38:26.870Z,9.97
2022-10-26T07:41:05.302Z,10.08
2022-10-26T07:43:34.378Z,10.08
2022-10-26T07:46:20.333Z,10.35
2022-10-26T07:48:55.616Z,10.53
2022-10-26T07:51:23.845Z,10.56
2022-10-26T07:53:51.006Z,10.71
2022-10-26T07:56:21.205Z,10.85
2022-10-26T07:58:49.448Z,10.99
2022-10-26T08:01:18.659Z,11.20
2022-10-26T08:03:45.934Z,11.47
2022-10-26T08:06:12.987Z,11.72
2022-10-26T08:08:47.795Z,11.92
2022-10-26T08:11:20.678Z,12.12
2022-10-26T08:13:47.965Z,12.23
2022-10-26T08:16:21.757Z,12.48
2022-10-26T08:18:54.315Z,12.65
2022-10-26T08:21:39.115Z,12.85
2022-10-26T08:24:08.496Z,13.04
2022-10-26T08:26:38.751Z,13.29
2022-10-26T08:29:09.946Z,13.43
2022-10-26T08:31:43.081Z,13.62
2022-10-26T08:34:16.999Z,13.92
2022-10-26T08:37:03.374Z,14.15
2022-10-26T08:39:31.264Z,14.37
2022-10-26T08:42:35.289Z,14.54
2022-10-26T08:45:30.620Z,15.28
2022-10-26T08:48:10.741Z,16.98
2022-10-26T08:50:45.538Z,18.86
2022-10-26T08:53:22.986Z,20.32
2022-10-26T08:56:23.515Z,21.09
2022-10-26T08:58:58.855Z,21.29
2022-10-26T09:01:39.870Z,20.79
2022-10-26T09:04:13.162Z,21.10
2022-10-26T09:07:21.694Z,21.25
2022-10-26T09:10:08.371Z,21.87
2022-10-26T09:13:12.521Z,22.77
2022-10-26T09:16:14.132Z,21.22
2022-10-26T09:18:53.731Z,22.31
2022-10-26T09:21:44.277Z,22.75
2022-10-26T09:24:32.814Z,21.93
2022-10-26T09:27:29.113Z,22.26
2022-10-26T09:30:22.277Z,23.61
2022-10-26T09:33:24.499Z,23.25
2022-10-26T09:36:03.914Z,24.06
2022-10-26T09:38:33.511Z,25.09
2022-10-26T09:41:06.955Z,24.16
2022-10-26T09:44:10.386Z,24.19
2022-10-26T09:46:52.153Z,23.97
2022-10-26T09:49:26.942Z,24.80
2022-10-26T09:51:54.170Z,24.99
2022-10-26T09:54:23.229Z,25.46
2022-10-26T09:56:58.217Z,24.88
2022-10-26T09:59:26.572Z,23.98
2022-10-26T10:01:55.152Z,24.68
2022-10-26T10:04:24.417Z,25.46
2022-10-26T10:07:13.724Z,24.64
2022-10-26T10:09:42.837Z,25.99
2022-10-26T10:12:20.774Z,27.28
2022-10-26T10:15:00.019Z,27.68
2022-10-26T10:17:34.286Z,26.03
2022-10-26T10:20:22.916Z,26.69
2022-10-26T10:23:04.028Z,26.25
2022-10-26T10:25:39.172Z,27.25
2022-10-26T10:28:33.775Z,26.97
2022-10-26T10:31:19.035Z,25.58
2022-10-26T10:33:53.474Z,24.36
2022-10-26T10:36:26.249Z,25.74
2022-10-26T10:38:54.482Z,27.41
2022-10-26T10:41:31.380Z,24.90
2022-10-26T10:44:23.297Z,26.02
2022-10-26T10:47:04.930Z,27.21
2022-10-26T10:49:39.495Z,27.55
2022-10-26T10:52:24.363Z,27.50
2022-10-26T10:55:25.565Z,26.45
2022-10-26T10:58:05.589Z,27.30
2022-10-26T11:00:37.760Z,27.22
2022-10-26T11:03:46.158Z,26.13
2022-10-26T11:06:29.341Z,26.29
2022-10-26T11:09:13.993Z,27.06
2022-10-26T11:11:58.701Z,27.19
2022-10-26T11:14:31.736Z,27.37
2022-10-26T11:17:08.776Z,26.78
2022-10-26T11:19:42.426Z,25.59
2022-10-26T11:22:16.456Z,24.94
2022-10-26T11:25:19.259Z,25.00
2022-10-26T11:27:53.149Z,25.48
2022-10-26T11:30:31.037Z,26.57
2022-10-26T11:33:21.406Z,26.34
2022-10-26T11:36:17.289Z,26.65
2022-10-26T11:38:57.494Z,26.98
2022-10-26T11:41:50.439Z,26.89
2022-10-26T11:44:24.142Z,26.42
2022-10-26T11:47:04.213Z,26.72
2022-10-26T11:50:17.164Z,27.24
2022-10-26T11:53:17.935Z,26.72
2022-10-26T11:55:54.574Z,26.26
2022-10-26T11:58:28.507Z,25.40
2022-10-26T12:01:05.063Z,23.88
2022-10-26T12:03:43.183Z,23.53
2022-10-26T12:06:12.175Z,23.39
2022-10-26T12:09:01.877Z,23.86
2022-10-26T12:11:42.776Z,24.23
2022-10-26T12:14:35.944Z,24.46
2022-10-26T12:17:24.209Z,24.67
2022-10-26T12:19:51.348Z,25.65
2022-10-26T12:22:23.896Z,25.94
2022-10-26T12:25:20.295Z,26.63
2022-10-26T12:30:20.064Z,26.78
2022-10-26T12:32:52.098Z,26.84
2022-10-26T12:35:33.097Z,26.35
2022-10-26T12:38:23.760Z,26.28
2022-10-26T12:41:22.392Z,24.98
2022-10-26T12:43:56.506Z,24.96
2022-10-26T12:46:30.104Z,25.56
2022-10-26T12:49:00.241Z,26.09
2022-10-26T12:51:27.210Z,24.72
2022-10-26T12:54:12.743Z,25.32
2022-10-26T12:57:00.739Z,25.63
2022-10-26T13:00:06.140Z,26.25
2022-10-26T13:02:51.339Z,26.44
2022-10-26T13:05:36.523Z,26.40
2022-10-26T13:08:10.454Z,25.74
2022-10-26T13:10:40.828Z,25.84
2022-10-26T13:13:24.402Z,25.44
2022-10-26T13:15:56.668Z,26.02
2022-10-26T13:18:26.222Z,25.52
2022-10-26T13:21:18.697Z,25.63
2022-10-26T13:23:53.594Z,25.54
2022-10-26T13:26:26.286Z,26.34
2022-10-26T13:29:00.639Z,26.18
2022-10-26T13:31:33.524Z,25.55
2022-10-26T13:34:29.025Z,24.35
2022-10-26T13:37:27.924Z,24.88
2022-10-26T13:40:12.427Z,25.87
2022-10-26T13:43:03.654Z,26.21
2022-10-26T13:45:50.840Z,27.37
2022-10-26T13:48:31.784Z,27.65
2022-10-26T13:51:04.384Z,26.89
2022-10-26T13:53:52.413Z,27.35
2022-10-26T13:56:38.257Z,26.79
2022-10-26T13:59:10.771Z,26.47
2022-10-26T14:02:23.718Z,26.46
2022-10-26T14:05:06.886Z,25.00
2022-10-26T14:07:58.448Z,25.55
2022-10-26T14:10:45.908Z,26.36
2022-10-26T14:13:22.288Z,25.50
2022-10-26T14:15:50.867Z,25.14
2022-10-26T14:18:31.457Z,25.24
2022-10-26T14:21:16.348Z,25.66
2022-10-26T14:24:07.833Z,26.19
2022-10-26T14:26:42.193Z,26.26
2022-10-26T14:29:21.554Z,26.91
2022-10-26T14:32:00.744Z,27.03
2022-10-26T14:34:38.917Z,26.81
2022-10-26T14:37:06.163Z,26.87
2022-10-26T14:39:43.999Z,27.18
2022-10-26T14:42:34.643Z,26.89
2022-10-26T14:45:03.313Z,26.81
2022-10-26T14:47:35.901Z,26.93
2022-10-26T14:50:18.750Z,26.70
2022-10-26T14:52:52.250Z,26.79
2022-10-26T14:55:20.699Z,26.44
2022-10-26T14:57:52.474Z,26.40
2022-10-26T15:00:26.707Z,26.18
2022-10-26T15:02:57.962Z,26.01
2022-10-26T15:05:35.526Z,25.64
2022-10-26T15:08:04.992Z,25.07
2022-10-26T15:13:44.290Z,23.88
2022-10-26T15:16:20.750Z,23.41
2022-10-26T15:18:52.995Z,23.20
2022-10-26T15:21:37.202Z,22.92
2022-10-26T15:24:15.239Z,22.30
2022-10-26T15:26:44.330Z,21.25
2022-10-26T15:29:44.657Z,20.48
2022-10-26T15:32:33.137Z,19.58
2022-10-26T15:35:19.309Z,19.09
2022-10-26T15:37:55.739Z,18.76
2022-10-26T15:42:58.669Z,17.97
2022-10-26T15:45:36.866Z,17.55
2022-10-26T15:48:32.329Z,17.18
2022-10-26T15:51:01.320Z,17.02
2022-10-26T15:53:28.499Z,16.85
2022-10-26T15:56:00.730Z,16.48
2022-10-26T15:58:32.210Z,16.16
2022-10-26T16:01:05.713Z,16.20
2022-10-26T16:03:33.894Z,16.20
2022-10-26T16:06:16.454Z,16.03
2022-10-26T16:08:53.247Z,15.67
2022-10-26T16:11:20.969Z,15.49
2022-10-26T16:16:26.937Z,15.25
2022-10-26T16:19:06.412Z,15.09
2022-10-26T16:21:42.139Z,14.75
2022-10-26T16:24:10.438Z,14.45
2022-10-26T16:26:39.505Z,14.52
2022-10-26T16:29:09.758Z,14.49
2022-10-26T16:31:43.019Z,14.26
2022-10-26T16:34:11.473Z,14.14
2022-10-26T16:37:03.177Z,13.88
2022-10-26T16:39:30.235Z,13.84
2022-10-26T16:42:00.378Z,13.69
2022-10-26T16:44:27.955Z,13.58
2022-10-26T16:46:54.987Z,13.60
2022-10-26T16:49:24.165Z,13.58
2022-10-26T16:51:52.952Z,13.31
2022-10-26T16:54:20.010Z,13.27
2022-10-26T16:56:47.134Z,13.25
2022-10-26T16:59:14.653Z,12.94
2022-10-26T17:01:46.175Z,12.93
2022-10-26T17:04:19.857Z,12.80
2022-10-26T17:06:47.393Z,13.05
2022-10-26T17:09:15.944Z,13.05
2022-10-26T17:11:43.183Z,12.87
2022-10-26T17:14:13.604Z,12.57
2022-10-26T17:16:41.296Z,12.36
2022-10-26T17:19:08.783Z,11.93
2022-10-26T17:21:42.232Z,12.21
2022-10-26T17:24:14.274Z,12.37
2022-10-26T17:26:53.749Z,12.26
2022-10-26T17:29:22.533Z,12.18
2022-10-26T17:31:58.870Z,12.07
2022-10-26T17:34:26.693Z,11.96
2022-10-26T17:36:55.964Z,11.91
2022-10-26T17:39:23.458Z,11.95
2022-10-26T17:41:50.974Z,11.99
2022-10-26T17:44:19.022Z,12.02
2022-10-26T17:46:47.590Z,11.66
2022-10-26T17:49:19.766Z,11.23
2022-10-26T17:51:53.382Z,11.18
2022-10-26T17:54:30.954Z,11.29
2022-10-26T17:57:01.260Z,10.91
2022-10-26T17:59:36.017Z,10.90
2022-10-26T18:02:04.205Z,11.32
2022-10-26T18:05:09.074Z,11.29
2022-10-26T18:07:38.678Z,11.22
2022-10-26T18:10:26.308Z,11.26
2022-10-26T18:12:56.972Z,11.20
2022-10-26T18:15:54.424Z,11.15
2022-10-26T18:18:35.416Z,10.99
2022-10-26T18:21:23.733Z,11.06
2022-10-26T18:24:48.419Z,11.00
2022-10-26T18:27:18.898Z,10.70
2022-10-26T18:30:12.575Z,10.52
2022-10-26T18:32:46.165Z,10.52
2022-10-26T18:35:16.043Z,10.46
2022-10-26T18:37:45.775Z,10.48
2022-10-26T18:40:24.500Z,10.16
2022-10-26T18:42:59.942Z,10.08
2022-10-26T18:45:39.154Z,10.15
2022-10-26T18:48:25.796Z,10.06
2022-10-26T18:50:53.332Z,10.16
2022-10-26T18:53:35.341Z,10.11
2022-10-26T18:56:10.985Z,10.05
2022-10-26T18:58:59.612Z,10.10
2022-10-26T19:01:32.062Z,10.10
2022-10-26T19:04:03.953Z,9.94
2022-10-26T19:06:44.178Z,9.68
2022-10-26T19:09:11.973Z,9.68
2022-10-26T19:11:39.859Z,9.50
2022-10-26T19:14:14.315Z,9.43
2022-10-26T19:16:46.398Z,9.52
2022-10-26T19:19:18.735Z,9.76
2022-10-26T19:21:49.312Z,9.65
2022-10-26T19:24:21.985Z,9.65
2022-10-26T19:26:57.828Z,9.67
2022-10-26T19:29:29.773Z,9.53
2022-10-26T19:32:24.658Z,9.60
2022-10-26T19:34:53.964Z,9.51
2022-10-26T19:37:28.215Z,9.61
2022-10-26T19:40:11.011Z,9.69
2022-10-26T19:42:39.888Z,9.70
2022-10-26T19:45:09.815Z,9.56
2022-10-26T19:47:53.487Z,9.59
2022-10-26T19:50:28.780Z,9.51
2022-10-26T19:52:58.085Z,9.37
2022-10-26T19:55:28.170Z,9.26
2022-10-26T19:58:28.467Z,9.33
2022-10-26T20:01:02.237Z,9.25
2022-10-26T20:03:43.595Z,9.31
2022-10-26T20:06:24.854Z,9.29
2022-10-26T20:09:03.535Z,9.37
2022-10-26T20:11:44.370Z,9.16
2022-10-26T20:14:27.223Z,9.11
2022-10-26T20:16:58.556Z,8.57
2022-10-26T20:19:27.953Z,7.99
2022-10-26T20:22:01.469Z,8.10
2022-10-26T20:24:42.448Z,8.10
2022-10-26T20:27:20.214Z,7.77
2022-10-26T20:29:48.907Z,7.81
2022-10-26T20:32:17.731Z,8.26
2022-10-26T20:35:02.664Z,8.41
2022-10-26T20:37:35.501Z,8.21
2022-10-26T20:40:03.414Z,8.08
2022-10-26T20:42:33.668Z,8.20
2022-10-26T20:45:10.743Z,8.25
2022-10-26T20:47:44.157Z,8.22
2022-10-26T20:50:12.264Z,8.18
2022-10-26T20:52:52.373Z,8.20
2022-10-26T20:55:27.923Z,8.25
2022-10-26T20:58:06.213Z,8.33
2022-10-26T21:00:43.682Z,8.42
2022-10-26T21:03:13.073Z,8.37
2022-10-26T21:05:46.762Z,8.44
2022-10-26T21:08:14.265Z,8.53
2022-10-26T21:10:55.435Z,8.38
2022-10-26T21:13:28.616Z,7.92
2022-10-26T21:16:12.342Z,7.60
2022-10-26T21:18:45.807Z,7.38
2022-10-26T21:21:12.906Z,7.52
2022-10-26T21:23:43.926Z,7.54
2022-10-26T21:26:19.225Z,7.67
2022-10-26T21:28:47.529Z,7.76
2022-10-26T21:31:45.360Z,7.73
2022-10-26T21:34:42.159Z,7.86
2022-10-26T21:37:12.298Z,7.77
2022-10-26T21:39:48.364Z,7.77
2022-10-26T21:42:15.528Z,7.69
2022-10-26T21:44:47.060Z,7.71
2022-10-26T21:47:18.197Z,7.86
2022-10-26T21:49:53.231Z,7.83
2022-10-26T21:52:20.444Z,7.88
2022-10-26T21:54:50.898Z,7.81
2022-10-26T21:57:24.622Z,7.52
2022-10-26T22:00:04.759Z,7.47
2022-10-26T22:02:31.926Z,7.71
2022-10-26T22:05:06.434Z,7.76
2022-10-26T22:07:33.395Z,7.67
2022-10-26T22:10:16.774Z,7.28
2022-10-26T22:13:00.919Z,7.10
2022-10-26T22:15:37.385Z,6.95
2022-10-26T22:18:21.665Z,7.18
2022-10-26T22:20:59.724Z,6.92
2022-10-26T22:23:46.030Z,7.34
2022-10-26T22:26:22.388Z,7.28
2022-10-26T22:28:57.803Z,7.23
2022-10-26T22:31:39.739Z,7.00
2022-10-26T22:34:13.934Z,7.12
2022-10-26T22:36:53.399Z,7.22
2022-10-26T22:39:25.620Z,6.82
2022-10-26T22:42:05.639Z,6.87
2022-10-26T22:44:34.771Z,6.82
2022-10-26T22:47:07.704Z,6.74
2022-10-26T22:49:38.577Z,6.99
2022-10-26T22:52:05.827Z,6.97
2022-10-26T22:55:08.788Z,7.00
2022-10-26T22:57:43.929Z,6.86
2022-10-26T23:00:16.924Z,6.91
2022-10-26T23:02:43.842Z,6.96
2022-10-26T23:05:17.697Z,6.85
2022-10-26T23:07:51.953Z,6.68
2022-10-26T23:10:29.623Z,6.86
2022-10-26T23:13:14.700Z,6.71
2022-10-26T23:15:52.777Z,6.92
2022-10-26T23:18:33.017Z,6.83
2022-10-26T23:21:12.456Z,6.93
2022-10-26T23:23:42.012Z,6.95
2022-10-26T23:26:40.555Z,6.81
2022-10-26T23:29:29.063Z,6.96
2022-10-26T23:32:01.223Z,6.87
2022-10-26T23:34:42.740Z,6.52
2022-10-26T23:37:19.943Z,6.52
2022-10-26T23:39:52.937Z,6.40
2022-10-26T23:42:39.217Z,6.65
2022-10-26T23:45:09.549Z,6.76
2022-10-26T23:47:44.613Z,6.69
2022-10-26T23:50:17.799Z,6.63
2022-10-26T23:52:49.059Z,6.57
2022-10-26T23:55:17.443Z,6.56
2022-10-26T23:57:45.357Z,6.46
